• Join FlightAware (Why Join?)
  • Login
  • US Flag 
01:30AM EDT


 

Airport Tracker/Info


-or-


 

Live Flight TrackerFlight Track Log ✈ N789EX ✈ 24-Oct-2013 ✈ KBFI - KBFI

Flight Track Log - Related Links

Times and Time Zones

All times are in EDT time to prevent confusion due to time zone crossing. See the N789EX flight status page for this flight to view local times or setup timezone preferences in your user account.

Time Position Orientation Groundspeed Altitude Reporting Facility
EDT Latitude Longitude Course Direction KTS MPH feet Rate Location/Type
01:36PM 47.4750 -122.1450 54° Northeast 261 300 5,100  Level FlightAware
01:37PM 47.4990 -122.0940 55° Northeast 262 302 7,100 3,120 Climbing FlightAware
01:37PM 47.5360 -122.0640 29° Northeast 276 318 8,700 2,760 Climbing FlightAware
01:38PM 47.5950 -122.0920 342° North 293 337 10,900 2,760 Climbing FlightAware
01:39PM 47.6410 -122.1190 338° Northwest 300 345 12,600 2,820 Climbing FlightAware
01:39PM 47.7000 -122.1530 339° North 307 353 14,700 2,580 Climbing FlightAware
01:40PM 47.7470 -122.1800 339° North 314 361 16,100 1,980 Climbing FlightAware
01:41PM 47.7980 -122.2090 339° North 338 389 17,100 1,320 Climbing FlightAware
01:41PM 47.8660 -122.2470 339° North 376 433 17,900 1,140 Climbing FlightAware
01:42PM 47.9370 -122.2870 339° North 405 466 18,800 1,560 Climbing FlightAware
01:43PM 47.9970 -122.3120 344° North 419 482 19,900 1,860 Climbing FlightAware
01:43PM 48.0480 -122.2860 19° North 428 493 20,800 1,860 Climbing FlightAware
01:44PM 48.0970 -122.1890 53° Northeast 431 496 22,200 1,980 Climbing FlightAware
01:44PM 48.1210 -122.0890 70° East 437 503 23,400 1,860 Climbing FlightAware
01:45PM 48.1230 -121.9400 89° East 444 511 24,900 1,800 Climbing FlightAware
01:46PM 48.1240 -121.8340 89° East 450 518 25,900 1,560 Climbing FlightAware
01:46PM 48.1190 -121.7260 94° East 458 527 26,700 1,380 Climbing FlightAware
01:47PM 48.1100 -121.6110 97° East 464 534 27,600 1,560 Climbing FlightAware
01:48PM 48.1020 -121.4960 96° East 467 537 28,600 1,500 Climbing FlightAware
01:48PM 48.0890 -121.3140 96° East 468 539 29,900 840 Climbing FlightAware
01:49PM 48.0800 -121.1810 96° East 468 539 30,000 60 Climbing FlightAware
01:50PM 48.0720 -121.0470 95° East 470 541 30,000  Level FlightAware
01:50PM 48.0660 -120.9420 95° East 470 541 30,000 420 Level FlightAware
01:51PM 48.0610 -120.8380 94° East 473 544 30,500 900 Climbing FlightAware
01:51PM 48.0550 -120.7270 95° East 480 552 31,000 960 Climbing FlightAware
01:52PM 48.0470 -120.5850 95° East 485 558 31,800 1,080 Climbing FlightAware
01:53PM 48.0400 -120.4530 94° East 491 565 32,500 840 Climbing FlightAware
01:54PM 48.0330 -120.3030 94° East 487 560 33,000 300 Climbing FlightAware
01:54PM 48.0270 -120.1620 94° East 488 562 33,000  Level FlightAware
01:55PM 48.0230 -120.0350 93° East 489 563 33,000  Level FlightAware
01:56PM 48.0170 -119.8100 92° East 492 566 33,100  Climbing FlightAware
01:57PM 48.0130 -119.5810 91° East 488 562 33,100  Level FlightAware
01:58PM 48.0110 -119.4950 92° East 487 560 33,100  Level FlightAware
01:58PM 48.0080 -119.3400 92° East 489 563 33,100  Level FlightAware
01:59PM 48.0050 -119.2250 92° East 492 566 33,100  Level FlightAware
02:00PM 48.0010 -119.0200 92° East 489 563 33,100  Level FlightAware
02:00PM 47.9990 -118.9050 91° East 493 567 33,100  Level FlightAware
02:02PM 47.9970 -118.7150 91° East 493 567 33,100  Level FlightAware
02:02PM 47.9950 -118.6110 92° East 493 567 33,100  Level FlightAware
02:03PM 47.9940 -118.5070 91° East 493 567 33,100  Level FlightAware
02:03PM 47.9930 -118.4290 91° East 493 567 33,100  Level FlightAware
02:04PM 47.9920 -118.3300 91° East 493 567 33,100  Level FlightAware
02:04PM 47.9910 -118.2230 91° East 493 567 33,100  Level FlightAware
02:05PM 47.9890 -118.0810 91° East 493 567 33,100  Level FlightAware
02:06PM 47.9880 -117.9830 91° East 493 567 33,100  Level FlightAware
02:06PM 47.9870 -117.8780 91° East 493 567 33,100  Level FlightAware
02:07PM 47.9840 -117.6990 91° East 493 567 33,100  Level FlightAware
02:08PM 47.9830 -117.5950 91° East 493 567 33,100  Level FlightAware
02:09PM 47.9820 -117.4610 91° East 493 567 33,100  Level FlightAware
02:09PM 47.9810 -117.3860 91° East 493 567 33,100  Level FlightAware
02:10PM 47.9800 -117.2880 91° East 493 567 33,100  Level FlightAware
02:10PM 47.9780 -117.1830 92° East 493 567 33,100 -120 Level FlightAware
02:11PM 47.8897 -116.9061 92° East 510 587 33,000 -180 Descending Seattle Center
02:12PM 48.0014 -117.0364 322° Northwest 490 564 32,900  Descending Seattle Center
02:13PM 48.0125 -117.2281 275° West 471 542 33,000  Climbing Seattle Center
02:14PM 48.0214 -117.4192 274° West 468 539 33,000  Level Seattle Center
02:15PM 48.0336 -117.6111 276° West 468 539 33,000  Level Seattle Center
02:16PM 48.0453 -117.8017 275° West 466 536 33,000  Level Seattle Center
02:22PM 48.1130 -118.9360 275° West 479 551 33,000  Level FlightAware
02:23PM 48.1220 -119.1040 275° West 483 556 33,200 60 Climbing FlightAware
02:23PM 48.1270 -119.2000 274° West 482 555 33,100 -300 Descending FlightAware
02:24PM 48.1340 -119.3250 275° West 483 556 32,900 -60 Descending FlightAware
02:25PM 48.1420 -119.5480 273° West 483 556 33,000  Climbing FlightAware
02:25PM 48.1430 -119.6650 271° West 482 555 33,000  Level FlightAware
02:26PM 48.1430 -119.7320 270° West 482 555 33,000  Level FlightAware
02:27PM 48.1420 -119.9200 270° West 484 557 33,000  Level FlightAware
02:27PM 48.1400 -120.0740 269° West 483 556 33,000  Level FlightAware
02:28PM 48.1380 -120.1870 269° West 482 555 33,000  Level FlightAware
02:29PM 48.1360 -120.2940 268° West 483 556 33,000  Level FlightAware
02:29PM 48.1360 -120.4680 270° West 484 557 33,000  Level FlightAware
02:30PM 48.1420 -120.6840 272° West 486 559 33,000  Level FlightAware
02:32PM 48.1480 -120.9010 272° West 486 559 33,000  Level FlightAware
02:32PM 48.1500 -121.0070 272° West 484 557 33,000  Level FlightAware
02:33PM 48.1540 -121.1420 273° West 486 559 33,000  Level FlightAware
02:33PM 48.1580 -121.2830 272° West 484 557 33,000  Level FlightAware
02:34PM 48.1590 -121.3540 271° West 484 557 33,000  Level FlightAware
02:35PM 48.1580 -121.5370 270° West 483 556 33,000  Level FlightAware
02:35PM 48.1580 -121.6230 270° West 485 558 33,000  Level FlightAware
02:36PM 48.1580 -121.7210 270° West 485 558 33,000  Level FlightAware
02:36PM 48.1580 -121.8650 270° West 479 551 33,000  Level FlightAware
02:37PM 48.1590 -122.0050 271° West 480 552 33,000 60 Level FlightAware
02:38PM 48.1810 -122.1190 286° West 482 555 33,100  Climbing FlightAware
02:38PM 48.2410 -122.1610 335° Northwest 494 568 33,000 -120 Descending FlightAware
02:39PM 48.3020 -122.1230 23° Northeast 508 585 33,000  Level FlightAware
02:39PM 48.3370 -121.9920 68° East 507 583 33,000  Level FlightAware
02:40PM 48.3330 -121.8660 93° East 504 580 33,000  Level FlightAware
02:40PM 48.3280 -121.7540 94° East 506 582 33,000  Level FlightAware
02:41PM 48.3220 -121.6300 94° East 503 579 33,000  Level FlightAware
02:42PM 48.3170 -121.5280 94° East 502 578 33,000  Level FlightAware
02:43PM 48.2920 -121.2700 98° East 506 582 33,000  Level FlightAware
02:43PM 48.2820 -121.1720 99° East 517 595 33,000  Level FlightAware
02:44PM 48.2690 -121.0300 98° East 526 605 33,000 60 Level FlightAware
02:44PM 48.2570 -120.9120 99° East 528 608 33,100 -120 Climbing FlightAware
02:45PM 48.2400 -120.7330 98° East 529 609 32,900  Descending FlightAware
02:46PM 48.2280 -120.6070 98° East 527 606 33,100 180 Climbing FlightAware
02:46PM 48.2180 -120.4990 98° East 527 606 33,100  Level FlightAware
02:47PM 48.2080 -120.3870 98° East 528 608 33,100  Level FlightAware
02:47PM 48.1970 -120.2560 97° East 530 610 33,100 -120 Level FlightAware
02:48PM 48.1810 -120.0570 97° East 532 612 33,000 60 Descending FlightAware
02:49PM 48.1700 -119.9180 97° East 531 611 33,200 120 Climbing FlightAware
02:50PM 48.1610 -119.7890 96° East 531 611 33,200  Level FlightAware
02:50PM 48.1500 -119.6330 96° East 530 610 33,200  Level FlightAware
02:51PM 48.1420 -119.5160 96° East 531 611 33,200 60 Level FlightAware
02:52PM 48.1310 -119.3570 96° East 530 610 33,300 -120 Climbing FlightAware
02:53PM 48.1160 -119.1020 95° East 528 608 33,000 -180 Descending FlightAware
02:53PM 48.1080 -118.9700 95° East 530 610 33,000  Level FlightAware
02:54PM 48.0990 -118.8150 95° East 532 612 33,000  Level FlightAware
02:55PM 48.0910 -118.6550 94° East 532 612 33,000  Level FlightAware
02:56PM 48.0860 -118.5400 94° East 532 612 33,000  Level FlightAware
02:56PM 48.0810 -118.4330 94° East 532 612 33,000  Level FlightAware
02:57PM 48.0760 -118.3210 94° East 532 612 33,000  Level FlightAware
02:57PM 48.0700 -118.2090 95° East 532 612 33,000  Level FlightAware
02:58PM 48.0650 -118.0900 94° East 532 612 33,000  Level FlightAware
02:59PM 48.0580 -117.9400 94° East 532 612 33,000  Level FlightAware
02:59PM 48.0540 -117.8650 95° East 532 612 33,000  Level FlightAware
03:00PM 48.0450 -117.6710 94° East 532 612 33,000  Level FlightAware
03:01PM 48.0400 -117.5650 94° East 532 612 33,000  Level FlightAware
03:01PM 48.0370 -117.4900 93° East 532 612 33,000  Level FlightAware
03:02PM 48.0300 -117.3410 94° East 532 612 33,000  Level FlightAware
03:03PM 48.0230 -117.1940 94° East 532 612 33,000  Level FlightAware
03:04PM 48.0160 -117.0440 94° East 532 612 33,000  Level FlightAware
03:04PM 48.0120 -116.9660 94° East 532 612 33,000  Level FlightAware
03:05PM 48.0308 -116.6256 94° East 542 624 33,000 -60 Level Seattle Center
03:06PM 48.0889 -116.8017 296° West 518 596 32,900 -60 Descending Seattle Center
03:07PM 48.0900 -117.0078 271° West 503 579 32,900  Level Seattle Center
03:08PM 48.0972 -117.2153 273° West 505 581 33,000  Climbing Seattle Center
03:09PM 48.1036 -117.4222 273° West 505 581 32,900 -1,800 Descending Seattle Center
03:10PM 48.1092 -117.6228 272° West 492 566 29,400 -4,200 Descending Seattle Center
03:11PM 48.1136 -117.8092 272° West 461 531 24,400 -4,920 Descending Seattle Center
03:12PM 48.1161 -117.9872 271° West 438 504 19,500 -4,560 Descending Seattle Center
03:13PM 48.1150 -118.1547 269° West 412 474 15,200 -4,620 Descending Seattle Center
03:14PM 48.1186 -118.3425 272° West 382 440 10,200 -2,640 Descending Seattle Center
03:15PM 48.1211 -118.4731 272° West 321 369 9,900 -180 Descending Seattle Center
03:16PM 48.1231 -118.5675 272° West 266 306 9,900  Level Seattle Center
03:17PM 48.1275 -118.6508 275° West 225 259 10,000 60 Climbing Seattle Center
03:18PM 48.1306 -118.7356 273° West 211 243 10,100  Climbing Seattle Center
03:19PM 48.1328 -118.8203 272° West 207 238 10,100 -60 Level Seattle Center
03:20PM 48.1372 -118.9064 274° West 207 238 10,000 -120 Descending Seattle Center
03:21PM 48.1417 -118.9903 275° West 204 235 9,900  Descending Seattle Center
03:22PM 48.1458 -119.0733 274° West 203 234 10,000  Climbing Seattle Center
03:23PM 48.1506 -119.1592 275° West 204 235 10,000 -60 Level Seattle Center
03:24PM 48.1553 -119.2444 275° West 205 236 9,900 -60 Descending Seattle Center
03:25PM 48.1608 -119.3450 275° West 205 236 9,900  Level Seattle Center
03:26PM 48.1672 -119.4303 276° West 205 236 9,900  Level Seattle Center
03:27PM 48.1700 -119.5144 273° West 204 235 9,900  Level Seattle Center
03:28PM 48.1450 -119.5794 240° Southwest 204 235 10,000  Climbing Seattle Center
03:29PM 48.0914 -119.5686 172° South 198 228 9,900 -60 Descending Seattle Center
03:30PM 48.0350 -119.5600 174° South 203 234 9,900  Level Seattle Center
03:31PM 47.9814 -119.5508 173° South 196 226 10,000  Climbing Seattle Center
03:32PM 47.9264 -119.5453 176° South 199 229 10,000  Level Seattle Center
03:33PM 47.8697 -119.5417 178° South 205 236 10,100  Climbing Seattle Center
03:34PM 47.8044 -119.5492 184° South 201 231 10,100  Level Seattle Center
03:35PM 47.7497 -119.5553 184° South 199 229 10,100  Level Seattle Center
03:36PM 47.6950 -119.5653 187° South 198 228 10,100  Level Seattle Center
03:37PM 47.6408 -119.5725 185° South 197 227 10,100  Level Seattle Center
03:38PM 47.5831 -119.5858 189° South 196 226 10,100  Level Seattle Center
03:39PM 47.5283 -119.6017 191° South 200 230 10,100 -60 Level Seattle Center
03:40PM 47.4711 -119.6025 181° South 210 242 10,000 -120 Descending Seattle Center
03:41PM 47.4122 -119.5903 172° South 213 245 9,900 -120 Descending Seattle Center
03:42PM 47.3508 -119.5775 172° South 209 241 9,800 180 Descending Seattle Center
03:43PM 47.2939 -119.5672 173° South 208 239 10,300 240 Climbing Seattle Center
03:44PM 47.2364 -119.5586 174° South 210 242 10,400 -60 Climbing Seattle Center
03:46PM 47.1747 -119.5556 178° South 208 239 10,200 -120 Descending Seattle Center
03:47PM 47.1169 -119.5575 181° South 209 241 10,200  Level Seattle Center
03:48PM 47.0600 -119.5656 186° South 208 239 10,300  Climbing Seattle Center
03:49PM 47.0033 -119.5731 185° South 209 241 10,300 -120 Level Seattle Center
03:50PM 47.0017 -119.4892 92° East 216 249 10,100 -120 Descending Seattle Center
03:51PM 47.0125 -119.4019 80° East 218 251 10,100  Level Seattle Center
03:52PM 47.0236 -119.3142 79° East 219 252 10,100  Level Seattle Center
03:53PM 47.0342 -119.2217 80° East 217 250 10,100  Level Seattle Center
03:54PM 47.0456 -119.1272 80° East 220 253 10,100  Level Seattle Center
03:55PM 47.0564 -119.0411 80° East 218 251 10,100 120 Level Seattle Center
03:56PM 47.0406 -118.9564 105° East 215 247 10,400 180 Climbing Seattle Center
03:57PM 47.0192 -118.8658 109° East 288 331 10,500 60 Climbing Seattle Center
03:58PM 46.9897 -118.7250 107° East 382 440 10,600 -60 Climbing Seattle Center
03:59PM 46.9506 -118.5328 107° East 411 473 10,400  Descending Seattle Center
04:00PM 46.9172 -118.3725 107° East 413 475 10,600  Climbing Seattle Center
04:01PM 46.8850 -118.2133 106° East 411 473 10,500 -120 Descending Seattle Center
04:02PM 46.8572 -118.0522 104° East 411 473 10,400 -60 Descending Seattle Center
04:03PM 46.7592 -118.0047 162° South 417 480 10,400  Level Seattle Center
04:04PM 46.7164 -118.1458 246° West 414 476 10,400  Level Seattle Center
04:05PM 46.7181 -118.3142 271° West 416 479 10,400  Level Seattle Center
04:06PM 46.7286 -118.4825 275° West 419 482 10,400  Level Seattle Center
04:07PM 46.7711 -118.6397 292° West 421 484 10,400  Level Seattle Center
04:08PM 46.8147 -118.7969 292° West 419 482 10,400 840 Level Seattle Center
04:14PM 47.1580 -119.5200 292° West 389 448 16,100 1,080 Climbing FlightAware
04:14PM 47.2100 -119.4970 17° North 400 460 17,300 2,640 Climbing FlightAware
04:15PM 47.2850 -119.4650 16° North 408 470 19,300 2,580 Climbing FlightAware
04:15PM 47.3450 -119.4400 16° North 417 480 20,500 2,400 Climbing FlightAware
04:16PM 47.4170 -119.4090 16° North 423 487 22,200 1,920 Climbing FlightAware
04:17PM 47.4880 -119.3780 16° North 434 499 23,000 1,620 Climbing FlightAware
04:17PM 47.5580 -119.3460 17° North 440 506 24,200 1,920 Climbing FlightAware
04:18PM 47.6890 -119.2880 17° North 454 522 26,300 1,860 Climbing FlightAware
04:19PM 47.7560 -119.2580 17° North 463 533 27,300 1,680 Climbing FlightAware
04:19PM 47.8220 -119.2280 17° North 468 539 28,200 1,560 Climbing FlightAware
04:20PM 47.8880 -119.1980 17° North 476 548 29,000 1,440 Climbing FlightAware
04:21PM 47.9860 -119.1530 17° North 487 560 30,100 660 Climbing FlightAware
04:22PM 48.0760 -119.1120 17° North 487 560 30,100 1,440 Level FlightAware
04:22PM 48.1980 -119.0530 18° North 501 577 32,400 2,160 Climbing FlightAware
04:23PM 48.2730 -119.0070 22° Northeast 508 585 33,000 960 Climbing FlightAware
04:23PM 48.3080 -118.9530 46° Northeast 509 586 33,300 1,200 Climbing FlightAware
04:24PM 48.3300 -118.8450 73° East 500 575 34,100 1,260 Climbing FlightAware
04:25PM 48.2640 -118.6750 120° Southeast 472 543 35,300 660 Climbing FlightAware
04:26PM 48.2010 -118.6160 148° Southeast 472 543 35,300  Level FlightAware
04:26PM 48.1600 -118.5780 148° Southeast 472 543 35,300  Level FlightAware
04:27PM 48.1030 -118.5250 148° Southeast 472 543 35,300  Level FlightAware
04:27PM 48.0470 -118.4720 148° Southeast 472 543 35,300  Level FlightAware
04:28PM 47.9900 -118.4190 148° Southeast 472 543 35,300  Level FlightAware
04:28PM 47.9320 -118.3640 148° Southeast 472 543 35,300  Level FlightAware
04:29PM 47.8750 -118.3120 149° Southeast 472 543 35,300  Level FlightAware
04:30PM 47.7810 -118.2240 148° Southeast 472 543 35,300  Level FlightAware
04:30PM 47.7410 -118.1870 148° Southeast 472 543 35,300  Level FlightAware
04:31PM 47.6470 -118.0990 148° Southeast 472 543 35,300  Level FlightAware
04:32PM 47.6060 -118.0620 149° Southeast 472 543 35,300  Level FlightAware
04:32PM 47.5520 -118.0120 148° Southeast 472 543 35,300  Level FlightAware
04:33PM 47.5150 -117.9770 147° Southeast 472 543 35,300  Level FlightAware
04:34PM 47.4390 -117.9070 148° Southeast 472 543 35,300  Level FlightAware
04:34PM 47.3820 -117.8550 148° Southeast 472 543 35,300  Level FlightAware
04:35PM 47.3450 -117.8200 147° Southeast 472 543 35,300  Level FlightAware
04:35PM 47.3260 -117.8030 149° Southeast 472 543 35,300 6,660 Level FlightAware
04:35PM 47.7994 -116.8775 149° Southeast 460 529 40,100 3,180 Climbing Seattle Center
04:36PM 47.7864 -116.6950 96° East 447 514 40,200  Climbing Seattle Center
04:37PM 47.7750 -116.5208 95° East 429 494 40,200 -180 Level Seattle Center
04:38PM 47.7639 -116.3481 95° East 422 486 39,900 -600 Descending Seattle Center
04:39PM 47.7719 -116.1739 86° East 436 502 39,100 -540 Descending Seattle Center
04:40PM 47.8403 -116.0264 55° Northeast 442 509 38,900 -60 Descending Seattle Center
04:41PM 47.9781 -116.0117 North 441 507 39,000  Climbing Seattle Center
04:42PM 48.0503 -116.1464 309° West 430 495 39,000  Level Seattle Center
04:43PM 48.0639 -116.3233 277° West 431 496 39,000  Level Seattle Center
04:44PM 48.0708 -116.5058 273° West 439 505 39,000 180 Level Seattle Center
04:45PM 48.0819 -116.6944 275° West 454 522 39,400 480 Climbing Seattle Center
04:47PM 48.0878 -116.8833 273° West 458 527 40,000 360 Climbing Seattle Center
04:48PM 48.0936 -117.0736 273° West 461 531 40,200 60 Climbing Seattle Center
04:49PM 48.0978 -117.2678 272° West 469 540 40,200  Level Seattle Center
04:50PM 48.1025 -117.5028 272° West 475 547 40,200 -180 Level Seattle Center
04:55PM 48.1330 -118.4570 272° West 432 497 39,200 -180 Descending FlightAware
04:56PM 48.1380 -118.5840 273° West 432 497 39,200  Level FlightAware
04:56PM 48.1400 -118.6450 273° West 432 497 39,200 -3,360 Level FlightAware
04:57PM 48.1490 -118.8440 274° West 431 496 34,800 -3,300 Descending FlightAware
04:57PM 48.1520 -118.9080 274° West 431 496 34,800  Level FlightAware
04:58PM 48.1590 -119.0620 274° West 431 496 34,800  Level FlightAware
04:59PM 48.1640 -119.1590 274° West 431 496 34,800  Level FlightAware
05:00PM 48.1690 -119.2750 274° West 431 496 34,800  Level FlightAware
05:00PM 48.1720 -119.3360 274° West 431 496 34,800  Level FlightAware
05:01PM 48.1760 -119.4270 274° West 431 496 34,800  Level FlightAware
05:01PM 48.1790 -119.4880 274° West 431 496 34,800  Level FlightAware
05:02PM 48.1870 -119.6710 274° West 431 496 34,800  Level FlightAware
05:03PM 48.1920 -119.7620 275° West 431 496 34,800  Level FlightAware
05:04PM 48.1960 -119.8560 274° West 431 496 34,800 -9,480 Level FlightAware
05:05PM 48.2100 -120.1770 274° West 337 388 18,000 -10,260 Descending FlightAware
05:05PM 48.2140 -120.2410 275° West 321 369 18,100 180 Climbing FlightAware
05:06PM 48.2170 -120.3070 274° West 286 329 18,200 60 Climbing FlightAware
05:07PM 48.2180 -120.4080 271° West 247 284 18,200  Level FlightAware
05:08PM 48.2190 -120.5180 271° West 256 295 18,200  Level FlightAware
05:08PM 48.2190 -120.5630 270° West 279 321 18,200 -240 Level FlightAware
05:09PM 48.2100 -120.6220 257° West 280 322 18,000 -660 Descending FlightAware
05:09PM 48.1920 -120.6830 246° West 277 319 17,500 -840 Descending FlightAware
05:10PM 48.1660 -120.7720 246° West 308 354 16,900 -660 Descending FlightAware
05:11PM 48.1220 -120.9210 246° West 369 425 16,300 -1,020 Descending FlightAware
05:12PM 48.0970 -121.0050 246° West 364 419 15,200 -1,920 Descending FlightAware
05:13PM 48.0560 -121.1420 246° West 356 410 13,200 -1,320 Descending FlightAware
05:14PM 48.0240 -121.2490 246° West 353 406 12,900 -240 Descending FlightAware
05:14PM 47.9980 -121.3360 246° West 354 407 12,900 -600 Level FlightAware
05:15PM 47.9590 -121.4640 246° West 322 371 12,000 -840 Descending FlightAware
05:16PM 47.9220 -121.5870 246° West 284 327 11,200 -540 Descending FlightAware
05:18PM 47.8860 -121.6980 244° Southwest 283 326 10,900 -540 Descending FlightAware
05:18PM 47.8660 -121.7320 229° Southwest 274 315 10,500 -1,920 Descending FlightAware
05:18PM 47.8470 -121.7580 223° Southwest 276 318 9,500 -2,880 Descending FlightAware
05:19PM 47.8290 -121.7820 222° Southwest 273 314 8,600 -2,760 Descending FlightAware
05:19PM 47.8030 -121.8170 222° Southwest 273 314 7,300 -2,820 Descending FlightAware
05:19PM 47.7800 -121.8480 222° Southwest 270 311 6,200 -2,160 Descending FlightAware
05:20PM 47.7670 -121.8880 244° Southwest 272 313 5,600 -1,440 Descending FlightAware
05:20PM 47.7660 -121.9480 269° West 270 311 4,900 -1,440 Descending FlightAware
05:21PM 47.7640 -122.0000 267° West 273 314 4,200 -1,380 Descending FlightAware
05:21PM 47.7640 -122.0310 270° West 269 310 3,900 -540 Descending FlightAware
05:22PM 47.7630 -122.0810 268° West 244 281 3,800 -720 Descending FlightAware
05:22PM 47.7610 -122.1390 267° West 243 280 3,200 -960 Descending FlightAware
05:23PM 47.7560 -122.1980 263° West 236 272 2,700 -720 Descending FlightAware
05:23PM 47.7510 -122.2360 259° West 222 255 2,500 -600 Descending FlightAware
05:24PM 47.7460 -122.2720 258° West 210 242 2,200 -420 Descending FlightAware
05:24PM 47.7390 -122.3210 258° West 191 220 2,100 -120 Descending FlightAware
05:25PM 47.7330 -122.3510 253° West 190 219 2,100  Level FlightAware
05:25PM 47.7200 -122.3830 239° Southwest 190 219 2,100  Level FlightAware
05:26PM 47.7080 -122.4120 238° Southwest 186 214 2,100  Level FlightAware
05:26PM 47.6890 -122.4220 200° South 184 212 2,100  Level FlightAware
05:27PM 47.6550 -122.4090 166° South 178 205 2,100  Level FlightAware
05:27PM 47.6370 -122.3930 149° Southeast 160 184 2,100 -360 Level FlightAware
05:28PM 47.6200 -122.3780 149° Southeast 157 181 1,800 -780 Descending FlightAware
05:28PM 47.6020 -122.3640 152° Southeast 166 191 1,400 -1,020 Descending FlightAware
05:28PM 47.5830 -122.3480 150° Southeast 162 186 900 -1,020 Descending FlightAware
05:29PM 47.5660 -122.3330 149° Southeast 156 180 500 -840 Descending FlightAware
05:29PM 47.5610 -122.3280 146° Southeast 157 181 400 -180 Descending FlightAware
05:30PM 47.5470 -122.3170 152° Southeast 157 181 400 -300 Level FlightAware
05:30PM 47.5139 -122.2897 152° Southeast 159 183 100 -420 Descending Seattle Center
05:32PM 47.5167 -122.3000 326° Northwest  Level FlightAware Approximate